Maple, North Carolina
Current Conditions -  °F | °C
As of 11:15 PM on Tuesday 27 Jan 2015 (Local Time) from KONX Reporting Station
Overcast Overcast  
Wind Chill: 29°   Ceiling: 11000
Heat Index: 35°   Visibility: 10mi
Dew Point: 24°   Wind: 7mph
Humidity: 66%   Direction: 330°NNW
Pressure: 29.92"   Gusts: NA
Location:  36.41°N, 76°W
Report Text: KONX 280415Z AUTO 33006KT 10SM OVC110 02/M04 A2992 RMK AO2 T00151042
Loading
Personal Weather Stations






























Interactive Weather Map New forecast layout! Learn more

10-Day Weather Forecast

Advertisements
Track Severe Weather on mobile